createdAt,value
2018-08-22T00:01:27.077Z,30.70
2018-08-22T00:03:57.916Z,28.90
2018-08-22T00:06:29.636Z,28.93
2018-08-22T00:08:59.213Z,28.57
2018-08-22T00:11:28.864Z,29.10
2018-08-22T00:13:58.375Z,28.80
2018-08-22T00:16:28.395Z,29.07
2018-08-22T00:18:58.217Z,31.00
2018-08-22T00:21:27.652Z,29.53
2018-08-22T00:23:57.958Z,29.93
2018-08-22T00:26:29.966Z,31.00
2018-08-22T00:28:59.835Z,30.47
2018-08-22T00:31:30.408Z,32.50
2018-08-22T00:33:59.947Z,30.63
2018-08-22T00:36:29.782Z,31.60
2018-08-22T00:38:59.139Z,31.83
2018-08-22T00:41:28.955Z,32.73
2018-08-22T00:44:01.195Z,34.23
2018-08-22T00:46:30.765Z,31.30
2018-08-22T00:49:00.973Z,30.70
2018-08-22T00:51:30.885Z,31.53
2018-08-22T00:54:00.583Z,30.53
2018-08-22T00:56:31.145Z,31.37
2018-08-22T00:59:00.739Z,30.00
2018-08-22T01:01:30.357Z,30.47
2018-08-22T01:03:59.615Z,30.73
2018-08-22T01:06:29.077Z,29.10
2018-08-22T01:08:58.408Z,28.20
2018-08-22T01:11:27.875Z,27.83
2018-08-22T01:13:57.381Z,25.90
2018-08-22T01:16:33.368Z,29.80
2018-08-22T01:19:02.956Z,30.70
2018-08-22T01:21:33.833Z,31.00
2018-08-22T01:24:03.313Z,30.50
2018-08-22T01:26:33.009Z,29.93
2018-08-22T01:29:03.251Z,32.33
2018-08-22T01:31:32.865Z,29.43
2018-08-22T01:34:03.349Z,29.07
2018-08-22T01:36:33.565Z,28.30
2018-08-22T01:39:03.129Z,27.70
2018-08-22T01:41:33.063Z,27.07
2018-08-22T01:44:02.709Z,24.90
2018-08-22T01:46:32.541Z,25.90
2018-08-22T01:49:02.343Z,25.53
2018-08-22T01:51:32.463Z,25.43
2018-08-22T01:54:02.864Z,26.60
2018-08-22T01:56:32.846Z,26.27
2018-08-22T01:59:03.015Z,27.40
2018-08-22T02:01:32.608Z,27.63
2018-08-22T02:04:02.198Z,27.35
2018-08-22T02:06:31.797Z,26.00
2018-08-22T02:09:01.446Z,23.53
2018-08-22T02:11:31.488Z,23.30
2018-08-22T02:14:01.974Z,22.67
2018-08-22T02:16:31.420Z,20.80
2018-08-22T02:19:01.419Z,20.40
2018-08-22T02:21:31.730Z,20.30
2018-08-22T02:24:02.062Z,20.40
2018-08-22T02:26:31.370Z,21.00
2018-08-22T02:29:01.886Z,21.40
2018-08-22T02:31:32.625Z,22.50
2018-08-22T02:34:03.301Z,22.40
2018-08-22T02:36:32.943Z,21.00
2018-08-22T02:39:03.046Z,22.17
2018-08-22T02:41:33.426Z,23.73
2018-08-22T02:44:03.108Z,24.77
2018-08-22T02:46:32.731Z,24.23
2018-08-22T02:49:03.080Z,23.83
2018-08-22T02:51:33.094Z,24.20
2018-08-22T02:54:04.004Z,21.50
2018-08-22T02:56:34.336Z,20.70
2018-08-22T02:59:05.358Z,20.35
2018-08-22T03:01:35.022Z,20.03
2018-08-22T03:04:04.654Z,21.67
2018-08-22T03:06:34.868Z,22.13
2018-08-22T03:09:06.049Z,23.13
2018-08-22T03:11:35.788Z,22.80
2018-08-22T03:14:05.986Z,22.40
2018-08-22T03:16:35.593Z,21.65
2018-08-22T03:19:06.427Z,21.77
2018-08-22T03:21:36.277Z,20.83
2018-08-22T03:24:06.751Z,20.13
2018-08-22T03:26:36.157Z,20.10
2018-08-22T03:29:06.365Z,19.47
2018-08-22T03:31:36.233Z,18.63
2018-08-22T03:34:06.283Z,18.40
2018-08-22T03:36:36.579Z,18.63
2018-08-22T03:39:07.679Z,17.93
2018-08-22T03:41:37.853Z,16.53
2018-08-22T03:44:07.475Z,16.40
2018-08-22T03:46:37.107Z,15.63
2018-08-22T03:49:06.942Z,15.80
2018-08-22T03:51:37.619Z,14.43
2018-08-22T03:54:07.241Z,13.83
2018-08-22T03:56:37.585Z,13.90
2018-08-22T03:59:07.681Z,14.57
2018-08-22T04:01:38.415Z,14.00
2018-08-22T04:04:08.780Z,14.37
2018-08-22T04:06:38.883Z,13.73
2018-08-22T04:09:10.131Z,13.97
2018-08-22T04:11:41.256Z,13.43
2018-08-22T04:14:11.003Z,13.70
2018-08-22T04:16:40.795Z,12.70
2018-08-22T04:19:10.917Z,12.60
2018-08-22T04:21:42.009Z,13.33
2018-08-22T04:24:11.611Z,12.40
2018-08-22T04:26:41.243Z,14.10
2018-08-22T04:29:11.414Z,12.97
2018-08-22T04:31:41.323Z,12.87
2018-08-22T04:34:11.069Z,12.90
2018-08-22T04:36:41.283Z,13.53
2018-08-22T04:39:11.585Z,13.07
2018-08-22T04:41:42.259Z,12.23
2018-08-22T04:44:12.401Z,11.90
2018-08-22T04:46:42.600Z,11.33
2018-08-22T04:49:14.707Z,12.53
2018-08-22T04:51:45.928Z,12.10
2018-08-22T04:57:19.704Z,11.37
2018-08-22T04:59:49.419Z,12.03
2018-08-22T05:05:21.452Z,15.47
2018-08-22T05:07:51.694Z,17.83
2018-08-22T05:10:21.632Z,19.00
2018-08-22T05:12:52.466Z,19.40
2018-08-22T05:15:24.684Z,20.30
2018-08-22T05:17:54.385Z,20.33
2018-08-22T05:20:27.229Z,19.97
2018-08-22T05:22:57.307Z,18.90
2018-08-22T05:25:28.008Z,20.67
2018-08-22T05:27:57.838Z,21.27
2018-08-22T05:30:27.938Z,21.57
2018-08-22T05:32:57.606Z,21.57
2018-08-22T05:35:29.148Z,21.33
2018-08-22T05:37:59.920Z,22.37
2018-08-22T05:40:30.877Z,21.53
2018-08-22T05:43:00.556Z,20.43
2018-08-22T05:45:30.282Z,20.80
2018-08-22T05:47:59.956Z,21.35
2018-08-22T05:50:29.882Z,19.93
2018-08-22T05:53:00.156Z,20.20
2018-08-22T05:55:31.634Z,19.80
2018-08-22T05:58:01.509Z,18.57
2018-08-22T06:00:31.012Z,19.73
2018-08-22T06:03:00.781Z,18.40
2018-08-22T06:05:31.000Z,18.17
2018-08-22T06:08:00.612Z,18.40
2018-08-22T06:10:30.661Z,16.57
2018-08-22T06:13:00.355Z,17.13
2018-08-22T06:15:30.666Z,15.87
2018-08-22T06:18:00.643Z,15.17
2018-08-22T06:20:31.271Z,15.27
2018-08-22T06:23:01.105Z,14.83
2018-08-22T06:25:30.947Z,14.10
2018-08-22T06:28:00.959Z,14.37
2018-08-22T06:30:31.476Z,14.33
2018-08-22T06:33:01.258Z,13.37
2018-08-22T06:35:31.028Z,11.97
2018-08-22T06:38:00.681Z,13.30
2018-08-22T06:40:31.213Z,13.07
2018-08-22T06:43:01.451Z,12.93
2018-08-22T06:45:31.348Z,11.97
2018-08-22T06:48:01.256Z,12.07
2018-08-22T06:50:32.220Z,11.17
2018-08-22T06:53:01.871Z,11.43
2018-08-22T06:55:31.533Z,10.80
2018-08-22T06:58:01.353Z,10.67
2018-08-22T07:00:31.055Z,9.90
2018-08-22T07:03:00.437Z,9.70
2018-08-22T07:05:29.975Z,9.83
2018-08-22T07:07:59.561Z,10.10
2018-08-22T07:10:29.397Z,9.60
2018-08-22T07:12:58.801Z,9.50
2018-08-22T07:15:28.517Z,8.17
2018-08-22T07:17:58.105Z,8.73
2018-08-22T07:20:27.833Z,8.43
2018-08-22T07:22:57.393Z,8.50
2018-08-22T07:25:26.781Z,9.23
2018-08-22T07:27:56.493Z,8.47
2018-08-22T07:30:26.908Z,8.83
2018-08-22T07:32:57.504Z,9.13
2018-08-22T07:35:27.852Z,8.90
2018-08-22T07:37:57.838Z,9.27
2018-08-22T07:40:28.071Z,8.40
2018-08-22T07:42:57.755Z,9.23
2018-08-22T07:45:28.751Z,9.70
2018-08-22T07:47:59.127Z,9.05
2018-08-22T07:50:29.909Z,9.23
2018-08-22T07:53:04.562Z,9.45
2018-08-22T07:55:40.698Z,8.97
2018-08-22T07:58:10.260Z,8.80
2018-08-22T08:00:40.262Z,10.00
2018-08-22T08:03:09.831Z,10.07
2018-08-22T08:05:39.475Z,9.60
2018-08-22T08:08:09.578Z,10.03
2018-08-22T08:10:39.370Z,10.75
2018-08-22T08:13:15.612Z,10.80
2018-08-22T08:15:45.299Z,11.30
2018-08-22T08:18:15.007Z,12.67
2018-08-22T08:20:45.915Z,13.50
2018-08-22T08:23:15.306Z,13.17
2018-08-22T08:25:45.428Z,13.30
2018-08-22T08:28:15.113Z,14.10
2018-08-22T08:30:44.508Z,14.23
2018-08-22T08:33:14.095Z,13.10
2018-08-22T08:35:43.768Z,14.87
2018-08-22T08:38:13.882Z,15.03
2018-08-22T08:40:44.192Z,14.87
2018-08-22T08:43:14.404Z,14.60
2018-08-22T08:45:44.114Z,14.97
2018-08-22T08:48:13.447Z,15.27
2018-08-22T08:50:43.151Z,15.17
2018-08-22T08:53:12.727Z,14.70
2018-08-22T08:55:42.569Z,15.63
2018-08-22T08:58:12.858Z,15.87
2018-08-22T09:00:43.354Z,15.67
2018-08-22T09:03:13.743Z,14.73
2018-08-22T09:05:43.325Z,15.13
2018-08-22T09:08:13.816Z,15.50
2018-08-22T09:10:44.030Z,15.93
2018-08-22T09:13:14.468Z,16.05
2018-08-22T09:15:44.237Z,16.77
2018-08-22T09:18:13.940Z,16.97
2018-08-22T09:20:43.461Z,17.20
2018-08-22T09:23:13.569Z,16.13
2018-08-22T09:25:44.384Z,16.23
2018-08-22T09:28:14.436Z,17.07
2018-08-22T09:30:44.778Z,17.67
2018-08-22T09:38:13.883Z,17.40
2018-08-22T09:40:43.869Z,18.90
2018-08-22T09:43:13.424Z,18.53
2018-08-22T09:45:42.925Z,18.30
2018-08-22T09:48:12.896Z,18.65
2018-08-22T09:50:42.626Z,20.97
2018-08-22T09:53:12.536Z,18.33
2018-08-22T09:55:41.936Z,18.50
2018-08-22T09:58:13.031Z,17.75
2018-08-22T10:00:48.038Z,19.07
2018-08-22T10:03:18.007Z,18.37
2018-08-22T10:05:47.327Z,18.67
2018-08-22T10:08:17.440Z,18.07
2018-08-22T10:10:47.211Z,18.13
2018-08-22T10:13:16.930Z,17.90
2018-08-22T10:15:47.217Z,18.50
2018-08-22T10:18:17.673Z,17.93
2018-08-22T10:20:47.747Z,19.30
2018-08-22T10:23:17.351Z,19.07
2018-08-22T10:25:47.465Z,18.75
2018-08-22T10:28:17.428Z,18.53
2018-08-22T10:30:47.752Z,19.40
2018-08-22T10:33:18.096Z,18.87
2018-08-22T10:35:47.661Z,18.87
2018-08-22T10:38:17.505Z,19.17
2018-08-22T10:40:46.986Z,18.70
2018-08-22T10:43:16.591Z,19.27
2018-08-22T10:45:46.280Z,19.93
2018-08-22T10:48:15.716Z,20.03
2018-08-22T10:50:45.350Z,19.20
2018-08-22T10:53:14.891Z,18.90
2018-08-22T10:55:44.696Z,17.87
2018-08-22T10:58:19.043Z,17.53
2018-08-22T11:00:49.186Z,17.00
2018-08-22T11:03:19.398Z,17.33
2018-08-22T11:05:49.006Z,16.43
2018-08-22T11:08:19.353Z,16.60
2018-08-22T11:10:49.548Z,15.37
2018-08-22T11:13:19.201Z,16.53
2018-08-22T11:15:49.670Z,15.73
2018-08-22T11:18:19.137Z,15.87
2018-08-22T11:20:50.972Z,14.40
2018-08-22T11:23:32.283Z,14.03
2018-08-22T11:26:13.541Z,15.07
2018-08-22T11:28:54.184Z,15.03
2018-08-22T11:31:34.794Z,14.50
2018-08-22T11:34:15.272Z,15.23
2018-08-22T11:36:54.726Z,15.20
2018-08-22T11:39:24.786Z,14.75
2018-08-22T11:41:54.680Z,14.30
2018-08-22T11:44:24.198Z,14.93
2018-08-22T11:46:53.729Z,15.23
2018-08-22T11:49:23.785Z,15.43
2018-08-22T11:51:53.250Z,15.43
2018-08-22T11:54:22.908Z,14.73
2018-08-22T11:56:52.419Z,14.83
2018-08-22T11:59:22.029Z,14.70
2018-08-22T12:01:51.995Z,13.53
2018-08-22T12:04:21.718Z,14.27
2018-08-22T12:06:51.772Z,13.87
2018-08-22T12:09:21.532Z,13.40
2018-08-22T12:11:52.704Z,13.03
2018-08-22T12:14:22.618Z,13.60
2018-08-22T12:16:52.417Z,13.87
2018-08-22T12:19:22.202Z,13.77
2018-08-22T12:21:52.035Z,13.30
2018-08-22T12:24:21.490Z,13.23
2018-08-22T12:26:51.039Z,12.60
2018-08-22T12:29:21.263Z,12.03
2018-08-22T12:31:52.002Z,11.67
2018-08-22T12:34:22.044Z,10.53
2018-08-22T12:36:52.278Z,12.33
2018-08-22T12:39:22.211Z,11.37
2018-08-22T12:41:52.814Z,10.80
2018-08-22T12:44:23.286Z,10.07
2018-08-22T12:46:53.579Z,10.93
2018-08-22T12:49:23.047Z,9.87
2018-08-22T12:51:52.519Z,9.93
2018-08-22T12:54:22.314Z,9.10
2018-08-22T12:56:51.689Z,8.70
2018-08-22T12:59:21.176Z,8.40
2018-08-22T13:01:51.649Z,9.13
2018-08-22T13:04:21.272Z,9.10
2018-08-22T13:06:52.546Z,8.73
2018-08-22T13:09:22.087Z,9.67
2018-08-22T13:11:52.002Z,9.30
2018-08-22T13:14:22.052Z,8.97
2018-08-22T13:16:51.602Z,8.67
2018-08-22T13:19:22.656Z,8.60
2018-08-22T13:21:53.239Z,7.77
2018-08-22T13:24:22.830Z,8.30
2018-08-22T13:26:52.444Z,8.30
2018-08-22T13:29:23.390Z,7.97
2018-08-22T13:31:53.729Z,7.97
2018-08-22T13:34:23.834Z,7.70
2018-08-22T13:36:53.364Z,7.20
2018-08-22T13:39:23.692Z,8.20
2018-08-22T13:41:53.337Z,8.30
2018-08-22T13:44:23.185Z,8.37
2018-08-22T13:46:53.545Z,8.00
2018-08-22T13:49:23.200Z,7.50
2018-08-22T13:52:03.079Z,7.43
2018-08-22T13:54:32.942Z,7.20
2018-08-22T13:57:02.498Z,7.23
2018-08-22T13:59:32.059Z,7.13
2018-08-22T14:02:01.590Z,6.90
2018-08-22T14:04:31.141Z,7.33
2018-08-22T14:07:00.625Z,7.33
2018-08-22T14:09:30.429Z,6.80
2018-08-22T14:11:59.942Z,6.00
2018-08-22T14:14:29.655Z,6.63
2018-08-22T14:16:59.690Z,7.40
2018-08-22T14:19:29.380Z,6.40
2018-08-22T14:21:58.924Z,6.10
2018-08-22T14:24:28.568Z,6.07
2018-08-22T14:26:58.291Z,6.13
2018-08-22T14:29:27.828Z,5.77
2018-08-22T14:31:58.688Z,6.13
2018-08-22T14:34:28.260Z,5.83
2018-08-22T14:36:59.825Z,6.17
2018-08-22T14:39:29.439Z,5.90
2018-08-22T14:41:59.110Z,5.37
2018-08-22T14:44:28.900Z,5.97
2018-08-22T14:46:58.530Z,5.03
2018-08-22T14:49:28.693Z,5.07
2018-08-22T14:51:58.447Z,5.27
2018-08-22T14:54:28.335Z,4.90
2018-08-22T14:56:58.550Z,4.03
2018-08-22T14:59:28.331Z,3.70
2018-08-22T15:01:58.172Z,4.25
2018-08-22T15:04:27.809Z,3.80
2018-08-22T15:06:59.505Z,4.30
2018-08-22T15:09:30.131Z,5.20
2018-08-22T15:11:59.981Z,4.70
2018-08-22T15:14:30.298Z,4.63
2018-08-22T15:17:00.462Z,4.77
2018-08-22T15:19:30.303Z,5.33
2018-08-22T15:22:00.806Z,4.80
2018-08-22T15:24:31.524Z,5.07
2018-08-22T15:27:01.470Z,4.37
2018-08-22T15:29:31.235Z,4.80
2018-08-22T15:32:01.438Z,4.40
2018-08-22T15:34:43.053Z,4.07
2018-08-22T15:37:12.904Z,4.33
2018-08-22T15:39:42.251Z,4.40
2018-08-22T15:42:12.028Z,4.43
2018-08-22T15:44:42.364Z,4.70
2018-08-22T15:47:12.699Z,4.87
2018-08-22T15:49:42.491Z,4.30
2018-08-22T15:52:12.472Z,4.73
2018-08-22T15:54:42.193Z,4.35
2018-08-22T15:57:12.244Z,4.73
2018-08-22T15:59:41.972Z,4.30
2018-08-22T16:02:12.463Z,4.17
2018-08-22T16:04:53.646Z,4.33
2018-08-22T16:07:23.275Z,4.10
2018-08-22T16:09:53.602Z,3.83
2018-08-22T16:12:23.674Z,4.43
2018-08-22T16:14:54.058Z,4.20
2018-08-22T16:17:23.798Z,4.27
2018-08-22T16:19:53.436Z,4.00
2018-08-22T16:22:23.333Z,4.30
2018-08-22T16:24:52.956Z,4.20
2018-08-22T16:27:22.708Z,3.77
2018-08-22T16:29:52.343Z,3.90
2018-08-22T16:32:23.103Z,4.23
2018-08-22T16:34:52.845Z,4.17
2018-08-22T16:37:22.859Z,3.97
2018-08-22T16:39:53.285Z,4.20
2018-08-22T16:42:27.322Z,4.40
2018-08-22T16:44:57.029Z,4.40
2018-08-22T16:47:31.071Z,4.50
2018-08-22T16:50:00.803Z,4.80
2018-08-22T16:52:30.307Z,4.90
2018-08-22T16:55:19.237Z,4.50
2018-08-22T16:57:49.824Z,4.87
2018-08-22T17:00:32.363Z,4.40
2018-08-22T17:03:03.713Z,4.63
2018-08-22T17:05:33.856Z,4.50
2018-08-22T17:08:03.584Z,4.90
2018-08-22T17:10:50.309Z,5.00
2018-08-22T17:13:31.929Z,4.67
2018-08-22T17:16:02.340Z,4.10
2018-08-22T17:18:33.246Z,4.37
2018-08-22T17:21:03.124Z,5.00
2018-08-22T17:23:32.919Z,4.60
2018-08-22T17:26:03.186Z,4.90
2018-08-22T17:28:39.955Z,4.63
2018-08-22T17:31:10.744Z,4.57
2018-08-22T17:33:44.077Z,5.23
2018-08-22T17:36:13.794Z,4.63
2018-08-22T17:38:45.719Z,4.40
2018-08-22T17:41:17.311Z,4.57
2018-08-22T17:44:05.028Z,4.87
2018-08-22T17:46:35.816Z,4.23
2018-08-22T17:49:05.651Z,4.10
2018-08-22T17:52:10.943Z,4.00
2018-08-22T17:54:40.415Z,4.87
2018-08-22T17:57:19.170Z,4.43
2018-08-22T17:59:49.569Z,4.23
2018-08-22T18:02:18.967Z,4.60
2018-08-22T18:05:00.843Z,4.37
2018-08-22T18:07:31.505Z,5.00
2018-08-22T18:10:03.195Z,6.40
2018-08-22T18:12:32.993Z,7.23
2018-08-22T18:15:04.091Z,7.67
2018-08-22T18:17:34.751Z,7.20
2018-08-22T18:20:04.996Z,6.87
2018-08-22T18:22:36.133Z,7.23
2018-08-22T18:25:06.024Z,6.63
2018-08-22T18:27:35.786Z,6.87
2018-08-22T18:30:06.550Z,7.00
2018-08-22T18:32:36.739Z,6.57
2018-08-22T18:35:24.506Z,5.73
2018-08-22T18:37:54.805Z,6.03
2018-08-22T18:40:31.004Z,6.60
2018-08-22T18:43:04.431Z,6.60
2018-08-22T18:45:34.250Z,6.00
2018-08-22T18:48:06.255Z,6.63
2018-08-22T18:50:36.314Z,6.60
2018-08-22T18:53:06.431Z,6.30
2018-08-22T18:55:36.407Z,6.70
2018-08-22T18:58:06.911Z,6.63
2018-08-22T19:00:37.882Z,6.13
2018-08-22T19:03:08.557Z,6.10
2018-08-22T19:05:38.983Z,6.47
2018-08-22T19:08:12.465Z,6.70
2018-08-22T19:10:43.889Z,6.90
2018-08-22T19:13:16.261Z,7.30
2018-08-22T19:15:51.467Z,6.97
2018-08-22T19:18:21.638Z,6.60
2018-08-22T19:20:53.237Z,8.07
2018-08-22T19:23:23.027Z,7.53
2018-08-22T19:25:53.466Z,7.50
2018-08-22T19:28:23.744Z,8.07
2018-08-22T19:30:54.260Z,6.80
2018-08-22T19:33:24.963Z,7.33
2018-08-22T19:35:55.196Z,7.43
2018-08-22T19:38:26.931Z,7.07
2018-08-22T19:40:57.316Z,6.80
2018-08-22T19:43:27.915Z,5.93
2018-08-22T19:45:57.642Z,6.90
2018-08-22T19:48:28.096Z,8.97
2018-08-22T19:50:58.473Z,8.47
2018-08-22T19:53:28.794Z,7.97
2018-08-22T19:55:58.442Z,7.87
2018-08-22T19:58:34.156Z,8.30
2018-08-22T20:01:04.821Z,7.30
2018-08-22T20:03:36.737Z,7.60
2018-08-22T20:06:06.677Z,8.07
2018-08-22T20:08:38.398Z,9.97
2018-08-22T20:11:08.540Z,10.03
2018-08-22T20:13:48.993Z,8.60
2018-08-22T20:16:20.575Z,8.20
2018-08-22T20:18:53.450Z,8.03
2018-08-22T20:21:28.281Z,8.67
2018-08-22T20:23:57.888Z,8.37
2018-08-22T20:26:28.010Z,8.00
2018-08-22T20:29:11.535Z,8.13
2018-08-22T20:31:41.917Z,7.87
2018-08-22T20:34:13.891Z,7.43
2018-08-22T20:36:47.989Z,7.40
2018-08-22T20:39:17.963Z,7.90
2018-08-22T20:41:49.327Z,7.37
2018-08-22T20:44:20.253Z,6.90
2018-08-22T20:46:50.643Z,6.70
2018-08-22T20:49:21.102Z,7.33
2018-08-22T20:51:51.670Z,6.37
2018-08-22T20:54:22.984Z,6.93
2018-08-22T20:56:57.833Z,6.27
2018-08-22T20:59:29.291Z,6.20
2018-08-22T21:02:09.135Z,5.90
2018-08-22T21:04:39.534Z,5.40
2018-08-22T21:07:10.169Z,5.53
2018-08-22T21:09:42.014Z,6.53
2018-08-22T21:12:11.506Z,7.30
2018-08-22T21:14:41.219Z,7.00
2018-08-22T21:17:10.982Z,7.73
2018-08-22T21:19:41.046Z,7.05
2018-08-22T21:22:29.710Z,7.20
2018-08-22T21:25:00.899Z,7.93
2018-08-22T21:27:31.219Z,6.53
2018-08-22T21:30:01.675Z,6.80
2018-08-22T21:32:32.120Z,8.47
2018-08-22T21:35:05.400Z,8.10
2018-08-22T21:37:34.829Z,8.87
2018-08-22T21:40:04.672Z,8.60
2018-08-22T21:42:36.224Z,7.73
2018-08-22T21:45:06.382Z,6.77
2018-08-22T21:47:36.312Z,7.13
2018-08-22T21:50:06.391Z,7.10
2018-08-22T21:52:53.295Z,8.35
2018-08-22T21:55:28.289Z,7.73
2018-08-22T21:57:57.869Z,8.07
2018-08-22T22:00:28.699Z,7.60
2018-08-22T22:02:58.693Z,9.13
2018-08-22T22:05:39.466Z,8.67
2018-08-22T22:08:10.195Z,7.70
2018-08-22T22:10:40.147Z,8.20
2018-08-22T22:13:10.572Z,7.83
2018-08-22T22:15:47.461Z,7.80
2018-08-22T22:18:18.428Z,8.73
2018-08-22T22:20:50.496Z,10.57
2018-08-22T22:23:19.922Z,9.63
2018-08-22T22:25:50.413Z,10.30
2018-08-22T22:28:23.275Z,10.90
2018-08-22T22:30:52.933Z,11.03
2018-08-22T22:33:23.480Z,10.45
2018-08-22T22:35:53.101Z,10.97
2018-08-22T22:38:22.833Z,11.27
2018-08-22T22:40:52.281Z,12.90
2018-08-22T22:43:23.388Z,13.27
2018-08-22T22:45:53.225Z,14.83
2018-08-22T22:48:33.929Z,15.95
2018-08-22T22:51:04.011Z,17.97
2018-08-22T22:53:34.180Z,17.00
2018-08-22T22:56:04.506Z,15.83
2018-08-22T22:58:35.749Z,16.53
2018-08-22T23:01:05.655Z,17.60
2018-08-22T23:03:35.460Z,17.80
2018-08-22T23:06:05.762Z,18.17
2018-08-22T23:08:36.290Z,16.90
2018-08-22T23:11:06.660Z,15.57
2018-08-22T23:13:36.784Z,17.57
2018-08-22T23:16:06.669Z,19.23
2018-08-22T23:18:37.955Z,18.60
2018-08-22T23:21:07.406Z,17.70
2018-08-22T23:23:38.727Z,19.20
2018-08-22T23:26:15.639Z,18.53
2018-08-22T23:28:45.583Z,18.87
2018-08-22T23:31:21.025Z,18.00
2018-08-22T23:33:50.595Z,19.70
2018-08-22T23:36:19.991Z,20.95
2018-08-22T23:38:49.801Z,19.70
2018-08-22T23:41:19.331Z,18.27
2018-08-22T23:43:52.242Z,18.63
2018-08-22T23:46:22.812Z,18.10
2018-08-22T23:48:56.775Z,19.17
2018-08-22T23:51:26.567Z,20.07
2018-08-22T23:53:58.750Z,19.07
2018-08-22T23:56:31.009Z,19.23
2018-08-22T23:59:01.470Z,19.23
